Time;durP1;ratioP1;P1;durP2;ratioP2;P2;SDS_P1;SDS_P2;PMS_P1;PMS_P2;Temp;Humidity;BMP_temperature;BMP_pressure;BME280_temperature;BME280_humidity;BME280_pressure;Samples;Min_cycle;Max_cycle;Signal;HPM_P1;HPM_P2
2022/08/09 00:00:33;;;;;;;1999.90;999.90;;;;;;;14.99;100.00;100576.81;5053053;28;20052;-53
2022/08/09 00:03:18;;;;;;;1999.90;999.90;;;;;;;14.95;100.00;100582.19;5051816;28;20090;-52
2022/08/09 00:06:02;;;;;;;1999.90;999.90;;;;;;;14.93;100.00;100591.91;5054262;28;20055;-52
2022/08/09 00:08:49;;;;;;;1999.90;999.90;;;;;;;14.67;100.00;100592.69;5055114;28;20052;-52
2022/08/09 00:11:33;;;;;;;1999.90;999.90;;;;;;;14.63;100.00;100592.84;5052784;28;20056;-52
2022/08/09 00:14:18;;;;;;;1999.90;999.90;;;;;;;14.68;100.00;100598.81;5053559;28;20059;-52
2022/08/09 00:17:03;;;;;;;1999.90;999.90;;;;;;;14.57;100.00;100599.16;5052121;28;20522;-53
2022/08/09 00:19:47;;;;;;;1999.90;999.90;;;;;;;14.58;100.00;100594.72;5052824;28;20041;-50
2022/08/09 00:22:31;;;;;;;1999.90;999.90;;;;;;;14.43;100.00;100598.66;5052933;28;20115;-50
2022/08/09 00:25:16;;;;;;;1999.90;999.90;;;;;;;14.47;100.00;100603.78;5051739;28;20982;-50
2022/08/09 00:28:00;;;;;;;1999.90;999.90;;;;;;;14.34;100.00;100589.22;5053456;28;20093;-52
2022/08/09 00:30:45;;;;;;;1999.90;999.90;;;;;;;14.42;100.00;100592.50;5052817;28;20125;-53
2022/08/09 00:33:30;;;;;;;1999.90;999.90;;;;;;;14.33;100.00;100595.41;5050672;28;20037;-52
2022/08/09 00:36:15;;;;;;;1999.90;999.90;;;;;;;14.31;100.00;100599.84;5052592;28;20040;-50
2022/08/09 00:38:59;;;;;;;1999.90;999.90;;;;;;;14.21;100.00;100566.78;5052026;28;20144;-53
2022/08/09 00:41:44;;;;;;;1999.90;999.90;;;;;;;14.18;100.00;100587.94;5051871;28;20798;-50
2022/08/09 00:44:28;;;;;;;1999.90;999.90;;;;;;;14.17;100.00;100588.81;5052829;28;20515;-53
2022/08/09 00:47:14;;;;;;;1999.90;999.90;;;;;;;14.10;100.00;100588.13;5054008;28;20053;-52
2022/08/09 00:49:58;;;;;;;1999.90;999.90;;;;;;;14.00;100.00;100587.50;5055457;28;20059;-53
2022/08/09 00:52:43;;;;;;;1999.90;999.90;;;;;;;14.10;100.00;100592.53;5056075;28;20041;-52
2022/08/09 00:55:27;;;;;;;1999.90;999.90;;;;;;;14.00;100.00;100592.78;5054294;28;20676;-53
2022/08/09 00:58:12;;;;;;;1999.90;999.90;;;;;;;14.00;100.00;100590.13;5055343;28;20087;-52
2022/08/09 01:00:57;;;;;;;1999.90;999.90;;;;;;;14.01;100.00;100591.03;5054526;28;20563;-50
2022/08/09 01:04:03;;;;;;;1999.90;999.90;;;;;;;14.05;100.00;100592.66;5056052;28;20059;-50
2022/08/09 01:07:03;;;;;;;1999.90;999.90;;;;;;;13.92;100.00;100593.91;5056292;28;20056;-51
2022/08/09 01:10:00;;;;;;;1999.90;999.90;;;;;;;14.02;100.00;100595.38;5056133;28;20054;-51
2022/08/09 01:13:01;;;;;;;1999.90;999.90;;;;;;;13.98;100.00;100596.38;5055153;28;20044;-50
2022/08/09 01:15:50;;;;;;;1999.90;999.90;;;;;;;13.93;100.00;100590.34;5057450;28;20048;-51
2022/08/09 01:18:36;;;;;;;1999.90;999.90;;;;;;;13.67;100.00;100591.88;5055428;28;21010;-49
2022/08/09 01:21:50;;;;;;;1999.90;999.90;;;;;;;13.71;100.00;100588.25;5057604;28;20078;-50
2022/08/09 01:24:52;;;;;;;1999.90;999.90;;;;;;;13.69;100.00;100582.19;5060668;28;20106;-50
2022/08/09 01:27:38;;;;;;;1999.90;999.90;;;;;;;13.64;100.00;100581.44;5056526;28;21975;-49
2022/08/09 01:30:26;;;;;;;1999.90;999.90;;;;;;;13.58;100.00;100592.13;5055887;28;20328;-50
2022/08/09 01:33:11;;;;;;;1999.90;999.90;;;;;;;13.47;100.00;100587.13;5063054;28;20134;-49
2022/08/09 01:36:04;;;;;;;1999.90;999.90;;;;;;;13.50;100.00;100589.69;5063896;28;20072;-51
2022/08/09 01:38:51;;;;;;;1999.90;999.90;;;;;;;13.36;100.00;100586.53;5061039;28;20098;-50
2022/08/09 01:41:40;;;;;;;1999.90;999.90;;;;;;;13.37;100.00;100590.88;5059711;28;20391;-49
2022/08/09 01:44:26;;;;;;;1999.90;999.90;;;;;;;13.34;100.00;100590.97;5056991;28;20522;-50
2022/08/09 01:47:12;;;;;;;1999.90;999.90;;;;;;;13.29;100.00;100579.66;5057099;28;20047;-50
2022/08/09 01:49:58;;;;;;;1999.90;999.90;;;;;;;13.25;100.00;100592.03;5057603;28;20036;-50
2022/08/09 01:52:43;;;;;;;1999.90;999.90;;;;;;;13.16;100.00;100586.09;5056094;28;20117;-51
2022/08/09 01:55:29;;;;;;;1999.90;999.90;;;;;;;13.18;100.00;100593.06;5058510;28;20926;-50
2022/08/09 01:58:15;;;;;;;1999.90;999.90;;;;;;;13.14;100.00;100594.03;5058457;28;20131;-50
2022/08/09 02:01:01;;;;;;;1999.90;999.90;;;;;;;13.12;100.00;100593.19;5056849;28;20087;-51
2022/08/09 02:03:46;;;;;;;1999.90;999.90;;;;;;;13.08;100.00;100596.78;5054970;28;20064;-50
2022/08/09 02:09:41;;;;;;;1999.90;999.90;;;;;;;12.94;100.00;100586.59;5054178;28;20503;-51
2022/08/09 02:12:28;;;;;;;1999.90;999.90;;;;;;;12.98;100.00;100600.53;5055515;28;20083;-51
2022/08/09 02:15:16;;;;;;;1999.90;999.90;;;;;;;12.95;100.00;100601.47;5054542;28;20102;-50
2022/08/09 02:18:06;;;;;;;1999.90;999.90;;;;;;;12.85;100.00;100594.69;5053171;28;20713;-50
2022/08/09 02:20:56;;;;;;;1999.90;999.90;;;;;;;12.89;100.00;100596.34;5054358;28;20064;-50
2022/08/09 02:23:51;;;;;;;1999.90;999.90;;;;;;;12.74;100.00;100587.03;5054443;28;20052;-49
2022/08/09 02:26:37;;;;;;;1999.90;999.90;;;;;;;12.80;100.00;100594.81;5053576;28;20102;-49
2022/08/09 02:29:24;;;;;;;1999.90;999.90;;;;;;;12.85;100.00;100586.78;5055618;28;20394;-50
2022/08/09 02:32:11;;;;;;;1999.90;999.90;;;;;;;12.77;100.00;100593.97;5054745;28;20048;-50
2022/08/09 02:35:01;;;;;;;1999.90;999.90;;;;;;;12.71;100.00;100587.09;5054883;28;20055;-50
2022/08/09 02:37:48;;;;;;;1999.90;999.90;;;;;;;12.80;100.00;100586.91;5053950;28;20052;-50
2022/08/09 02:40:35;;;;;;;1999.90;999.90;;;;;;;12.77;100.00;100589.59;5055293;28;20053;-50
2022/08/09 02:43:23;;;;;;;1999.90;999.90;;;;;;;12.78;100.00;100593.09;5055559;28;20044;-51
2022/08/09 02:46:10;;;;;;;1999.90;999.90;;;;;;;12.74;100.00;100594.03;5054688;28;20105;-50
2022/08/09 02:49:02;;;;;;;1999.90;999.90;;;;;;;12.66;100.00;100586.31;5055282;28;20233;-50
2022/08/09 02:51:53;;;;;;;1999.90;999.90;;;;;;;12.72;100.00;100594.09;5052963;28;20070;-50
2022/08/09 02:54:39;;;;;;;1999.90;999.90;;;;;;;12.71;100.00;100588.88;5055373;28;20087;-51
2022/08/09 02:57:26;;;;;;;1999.90;999.90;;;;;;;12.60;100.00;100596.97;5052559;28;20075;-51
2022/08/09 03:00:12;;;;;;;1999.90;999.90;;;;;;;12.59;100.00;100593.47;5056944;28;20043;-50
2022/08/09 03:02:59;;;;;;;1999.90;999.90;;;;;;;12.65;100.00;100592.50;5057895;28;20055;-50
2022/08/09 03:05:45;;;;;;;1999.90;999.90;;;;;;;12.67;100.00;100595.94;5058549;28;20032;-51
2022/08/09 03:08:31;;;;;;;1999.90;999.90;;;;;;;12.73;100.00;100585.28;5058064;28;20049;-50
2022/08/09 03:11:19;;;;;;;1999.90;999.90;;;;;;;12.82;100.00;100592.97;5057564;28;20083;-51
2022/08/09 03:14:04;;;;;;;1999.90;999.90;;;;;;;12.84;100.00;100595.59;5057169;28;20103;-50
2022/08/09 03:16:49;;;;;;;1999.90;999.90;;;;;;;12.80;100.00;100599.16;5053460;28;20135;-50
2022/08/09 03:19:34;;;;;;;1999.90;999.90;;;;;;;12.87;100.00;100603.41;5056927;28;20056;-50
2022/08/09 03:22:20;;;;;;;1999.90;999.90;;;;;;;12.87;100.00;100598.16;5056333;28;20230;-51
2022/08/09 03:25:05;;;;;;;1999.90;999.90;;;;;;;12.86;100.00;100601.66;5054591;28;20139;-51
2022/08/09 03:27:51;;;;;;;1999.90;999.90;;;;;;;12.90;100.00;100598.06;5061587;28;20051;-50
2022/08/09 03:30:36;;;;;;;1999.90;999.90;;;;;;;12.80;100.00;100593.91;5058224;28;20053;-51
2022/08/09 03:33:22;;;;;;;1999.90;999.90;;;;;;;12.75;100.00;100587.91;5055005;28;20479;-50
2022/08/09 03:36:07;;;;;;;1999.90;999.90;;;;;;;12.93;100.00;100603.25;5055231;28;20401;-50
2022/08/09 03:38:52;;;;;;;1999.90;999.90;;;;;;;12.93;100.00;100602.41;5054731;28;20045;-50
2022/08/09 03:41:36;;;;;;;1999.90;999.90;;;;;;;13.00;100.00;100603.97;5053847;28;20515;-50
2022/08/09 03:44:22;;;;;;;1999.90;999.90;;;;;;;13.00;100.00;100599.63;5054019;28;20422;-50
2022/08/09 03:47:07;;;;;;;1999.90;999.90;;;;;;;12.99;100.00;100597.00;5054400;28;20060;-49
2022/08/09 03:49:52;;;;;;;1999.90;999.90;;;;;;;13.06;100.00;100596.84;5054220;28;20090;-51
2022/08/09 03:52:41;;;;;;;1999.90;999.90;;;;;;;13.04;100.00;100589.88;5053953;28;20183;-52
2022/08/09 03:55:26;;;;;;;1999.90;999.90;;;;;;;13.14;100.00;100595.81;5052008;28;20059;-53
2022/08/09 03:58:10;;;;;;;1999.90;999.90;;;;;;;13.09;100.00;100598.53;5053861;28;20045;-50
2022/08/09 04:00:55;;;;;;;1999.90;999.90;;;;;;;13.18;100.00;100606.19;5055773;28;20106;-50
2022/08/09 04:03:40;;;;;;;1999.90;999.90;;;;;;;13.10;100.00;100601.13;5054131;28;20049;-52
2022/08/09 04:06:25;;;;;;;1999.90;999.90;;;;;;;13.20;100.00;100599.16;5053988;28;21021;-51
2022/08/09 04:09:09;;;;;;;1999.90;999.90;;;;;;;13.24;100.00;100600.84;5052647;28;20037;-52
2022/08/09 04:12:09;;;;;;;1999.90;999.90;;;;;;;13.32;100.00;100598.00;5054032;28;20057;-49
2022/08/09 04:14:53;;;;;;;1999.90;999.90;;;;;;;13.28;100.00;100602.47;5054879;28;20516;-52
2022/08/09 04:17:39;;;;;;;1999.90;999.90;;;;;;;13.35;100.00;100589.19;5053514;28;20051;-52
2022/08/09 04:20:23;;;;;;;1999.90;999.90;;;;;;;13.38;100.00;100587.34;5052932;28;20407;-52
2022/08/09 04:23:08;;;;;;;1999.90;999.90;;;;;;;13.52;100.00;100600.19;5055718;28;20057;-52
2022/08/09 04:25:54;;;;;;;1999.90;999.90;;;;;;;13.59;100.00;100603.53;5053685;28;20083;-52
2022/08/09 04:28:38;;;;;;;1999.90;999.90;;;;;;;13.62;100.00;100603.47;5056273;28;20101;-50
2022/08/09 04:31:22;;;;;;;1999.90;999.90;;;;;;;13.72;100.00;100594.41;5054391;28;20098;-50
2022/08/09 04:34:07;;;;;;;1999.90;999.90;;;;;;;13.77;100.00;100603.91;5054952;28;20060;-52
2022/08/09 04:36:52;;;;;;;1999.90;999.90;;;;;;;13.92;100.00;100601.81;5054640;28;20072;-50
2022/08/09 04:39:37;;;;;;;1999.90;999.90;;;;;;;14.10;100.00;100603.06;5054512;28;20466;-50
2022/08/09 04:42:21;;;;;;;1999.90;999.90;;;;;;;14.25;100.00;100610.56;5053407;28;20755;-50
2022/08/09 04:45:06;;;;;;;1999.90;999.90;;;;;;;14.34;100.00;100604.19;5051671;28;20140;-52
2022/08/09 04:47:52;;;;;;;1999.90;999.90;;;;;;;14.47;100.00;100606.41;5051939;28;20048;-53
2022/08/09 04:50:37;;;;;;;1999.90;999.90;;;;;;;14.53;100.00;100605.44;5050589;28;20168;-51
2022/08/09 04:53:21;;;;;;;1999.90;999.90;;;;;;;14.54;100.00;100609.78;5053189;28;20055;-50
2022/08/09 04:56:06;;;;;;;1999.90;999.90;;;;;;;14.69;100.00;100619.03;5052355;28;20554;-53
2022/08/09 04:58:50;;;;;;;1999.90;999.90;;;;;;;14.76;100.00;100617.94;5055724;28;20502;-52
2022/08/09 05:01:34;;;;;;;1999.90;999.90;;;;;;;14.89;100.00;100619.28;5059443;28;20056;-51
2022/08/09 05:04:20;;;;;;;1999.90;999.90;;;;;;;15.01;100.00;100614.53;5061605;28;20102;-50
2022/08/09 05:07:05;;;;;;;1999.90;999.90;;;;;;;15.12;100.00;100626.50;5060233;28;20059;-51
2022/08/09 05:09:50;;;;;;;1999.90;999.90;;;;;;;15.32;100.00;100625.03;5060661;28;20063;-51
2022/08/09 05:12:35;;;;;;;1999.90;999.90;;;;;;;15.57;100.00;100622.47;5057729;28;20076;-50
2022/08/09 05:15:19;;;;;;;1999.90;999.90;;;;;;;15.66;100.00;100624.78;5057187;28;20048;-50
2022/08/09 05:18:04;;;;;;;1999.90;999.90;;;;;;;15.95;100.00;100623.81;5057204;28;20052;-51
2022/08/09 05:20:49;;;;;;;1999.90;999.90;;;;;;;16.03;100.00;100627.09;5058979;28;20142;-50
2022/08/09 05:23:33;;;;;;;1999.90;999.90;;;;;;;16.10;100.00;100628.59;5059891;28;20217;-50
2022/08/09 05:26:18;;;;;;;1999.90;999.90;;;;;;;16.09;100.00;100631.31;5062866;28;20071;-50
2022/08/09 05:29:03;;;;;;;1999.90;999.90;;;;;;;16.21;100.00;100633.50;5058330;28;21424;-51
2022/08/09 05:31:51;;;;;;;1999.90;999.90;;;;;;;16.35;100.00;100639.16;5059116;28;20438;-51
2022/08/09 05:34:35;;;;;;;1999.90;999.90;;;;;;;16.54;100.00;100649.94;5056284;28;20053;-51
2022/08/09 05:37:20;;;;;;;1999.90;999.90;;;;;;;16.74;100.00;100636.00;5060049;28;20048;-51
2022/08/09 05:40:06;;;;;;;1999.90;999.90;;;;;;;16.78;100.00;100645.56;5062269;28;20075;-51
2022/08/09 05:42:51;;;;;;;1999.90;999.90;;;;;;;16.98;100.00;100650.09;5061864;28;20069;-50
2022/08/09 05:45:36;;;;;;;1999.90;999.90;;;;;;;17.02;100.00;100653.47;5061519;28;20064;-52
2022/08/09 05:48:20;;;;;;;1999.90;999.90;;;;;;;16.96;100.00;100651.06;5062407;28;20059;-51
2022/08/09 05:51:05;;;;;;;1999.90;999.90;;;;;;;16.92;100.00;100660.91;5060893;28;20056;-50
2022/08/09 05:53:51;;;;;;;1999.90;999.90;;;;;;;16.81;100.00;100658.66;5062115;28;21035;-53
2022/08/09 05:56:38;;;;;;;1999.90;999.90;;;;;;;17.01;100.00;100662.34;5060740;28;20063;-51
2022/08/09 05:59:23;;;;;;;1999.90;999.90;;;;;;;16.60;100.00;100654.13;5061392;28;20113;-51
2022/08/09 06:02:08;;;;;;;1999.90;999.90;;;;;;;16.79;100.00;100651.72;5061824;28;20067;-52
2022/08/09 06:04:52;;;;;;;1999.90;999.90;;;;;;;16.79;100.00;100646.41;5062147;28;20258;-50
2022/08/09 06:07:36;;;;;;;1999.90;999.90;;;;;;;16.91;100.00;100660.97;5058673;28;20142;-50
2022/08/09 06:10:36;;;;;;;1999.90;999.90;;;;;;;16.99;100.00;100654.44;5059513;28;20037;-50
2022/08/09 06:13:21;;;;;;;1999.90;999.90;;;;;;;17.08;100.00;100660.31;5053830;28;20048;-50
2022/08/09 06:16:06;;;;;;;1999.90;999.90;;;;;;;17.43;100.00;100666.91;5054681;28;20056;-50
2022/08/09 06:18:51;;;;;;;1999.90;999.90;;;;;;;17.19;100.00;100664.28;5055732;28;20049;-51
2022/08/09 06:21:35;;;;;;;1999.90;999.90;;;;;;;17.47;100.00;100668.50;5054080;28;20091;-51
2022/08/09 06:24:20;;;;;;;1999.90;999.90;;;;;;;17.52;100.00;100661.25;5055117;28;20049;-51
2022/08/09 06:27:05;;;;;;;1999.90;999.90;;;;;;;17.60;100.00;100663.56;5057119;28;20088;-51
2022/08/09 06:29:49;;;;;;;1999.90;999.90;;;;;;;17.61;100.00;100668.78;5060895;28;20131;-51
2022/08/09 06:32:33;;;;;;;1999.90;999.90;;;;;;;17.73;100.00;100663.00;5054729;28;20044;-51
2022/08/09 06:35:18;;;;;;;1999.90;999.90;;;;;;;17.84;100.00;100672.31;5054715;28;20053;-51
2022/08/09 06:38:03;;;;;;;1999.90;999.90;;;;;;;17.80;100.00;100668.94;5053319;28;20048;-54
2022/08/09 06:40:48;;;;;;;1999.90;999.90;;;;;;;17.99;100.00;100663.72;5055884;28;20105;-51
2022/08/09 06:43:33;;;;;;;1999.90;999.90;;;;;;;18.20;100.00;100670.78;5055018;28;20063;-51
2022/08/09 06:46:17;;;;;;;1999.90;999.90;;;;;;;18.35;100.00;100666.59;5052800;28;20064;-52
2022/08/09 06:49:02;;;;;;;1999.90;999.90;;;;;;;18.44;100.00;100673.28;5047354;28;20591;-51
2022/08/09 06:51:47;;;;;;;1999.90;999.90;;;;;;;18.58;100.00;100670.88;5053527;28;20558;-51
2022/08/09 06:54:32;;;;;;;1999.90;999.90;;;;;;;18.72;100.00;100677.34;5052033;28;20049;-52
2022/08/09 06:57:16;;;;;;;1999.90;999.90;;;;;;;18.32;100.00;100682.63;5056149;28;20045;-52
2022/08/09 07:00:01;;;;;;;1999.90;999.90;;;;;;;18.64;100.00;100683.88;5054363;28;20095;-52
2022/08/09 07:02:46;;;;;;;1999.90;999.90;;;;;;;18.78;100.00;100679.75;5053979;28;20044;-52
2022/08/09 07:05:30;;;;;;;1999.90;999.90;;;;;;;19.05;100.00;100683.81;5049233;28;20048;-52
2022/08/09 07:08:15;;;;;;;1999.90;999.90;;;;;;;19.08;100.00;100683.69;5054773;28;20079;-52
2022/08/09 07:11:04;;;;;;;1999.90;999.90;;;;;;;19.44;100.00;100688.19;5054482;28;20052;-51
2022/08/09 07:13:48;;;;;;;1999.90;999.90;;;;;;;19.35;100.00;100685.97;5055194;28;20511;-52
2022/08/09 07:16:33;;;;;;;1999.90;999.90;;;;;;;19.70;100.00;100688.75;5056077;28;20056;-51
2022/08/09 07:19:17;;;;;;;1999.90;999.90;;;;;;;20.00;100.00;100681.06;5061943;28;20113;-52
2022/08/09 07:22:02;;;;;;;1999.90;999.90;;;;;;;20.26;100.00;100690.34;5061389;28;20094;-52
2022/08/09 07:24:46;;;;;;;1999.90;999.90;;;;;;;20.39;100.00;100682.63;5060295;28;20158;-52
2022/08/09 07:27:31;;;;;;;1999.90;999.90;;;;;;;20.85;100.00;100688.19;5057332;28;20530;-53
2022/08/09 07:30:15;;;;;;;1999.90;999.90;;;;;;;20.80;100.00;100692.88;5057368;28;20083;-53
2022/08/09 07:33:00;;;;;;;1999.90;999.90;;;;;;;20.86;100.00;100696.06;5057709;28;20087;-52
2022/08/09 07:35:44;;;;;;;1999.90;999.90;;;;;;;21.05;100.00;100703.94;5056496;28;20211;-53
2022/08/09 07:38:28;;;;;;;1999.90;999.90;;;;;;;21.66;100.00;100705.03;5055743;28;20068;-51
2022/08/09 07:41:12;;;;;;;1999.90;999.90;;;;;;;22.17;100.00;100703.00;5056190;28;20048;-53
2022/08/09 07:43:57;;;;;;;1999.90;999.90;;;;;;;21.68;100.00;100693.34;5056371;28;20091;-52
2022/08/09 07:46:42;;;;;;;1999.90;999.90;;;;;;;21.98;100.00;100691.66;5057641;28;20055;-52
2022/08/09 07:49:26;;;;;;;1999.90;999.90;;;;;;;22.47;100.00;100700.28;5057411;28;20071;-53
2022/08/09 07:52:10;;;;;;;1999.90;999.90;;;;;;;22.70;100.00;100696.22;5057571;28;20148;-53
2022/08/09 07:54:55;;;;;;;1999.90;999.90;;;;;;;22.96;100.00;100696.44;5058440;28;20102;-53
2022/08/09 07:57:39;;;;;;;1999.90;999.90;;;;;;;22.75;100.00;100694.13;5057432;28;20045;-53
2022/08/09 08:00:24;;;;;;;1999.90;999.90;;;;;;;23.07;100.00;100699.28;5056140;28;20079;-53
2022/08/09 08:03:08;;;;;;;1999.90;999.90;;;;;;;23.19;100.00;100698.50;5058614;28;20052;-53
2022/08/09 08:05:54;;;;;;;1999.90;999.90;;;;;;;23.61;100.00;100695.84;5061085;28;20117;-54
2022/08/09 08:08:38;;;;;;;1999.90;999.90;;;;;;;24.46;100.00;100694.63;5060005;28;20051;-54
2022/08/09 08:11:23;;;;;;;1999.90;999.90;;;;;;;24.38;100.00;100688.91;5057217;28;20384;-54
2022/08/09 08:14:07;;;;;;;1999.90;999.90;;;;;;;24.08;98.31;100694.50;5059960;28;20131;-53
2022/08/09 08:16:51;;;;;;;1999.90;999.90;;;;;;;24.16;100.00;100693.06;5056423;28;20491;-54
2022/08/09 08:19:35;;;;;;;1999.90;999.90;;;;;;;24.21;100.00;100706.09;5055556;28;20091;-54
2022/08/09 08:22:20;;;;;;;1999.90;999.90;;;;;;;24.60;95.21;100697.22;5059214;28;20075;-53
2022/08/09 08:25:05;;;;;;;1999.90;999.90;;;;;;;24.46;98.19;100695.47;5059602;28;20059;-54
2022/08/09 08:27:49;;;;;;;1999.90;999.90;;;;;;;24.02;97.00;100702.00;5056838;28;20083;-52
2022/08/09 08:30:33;;;;;;;1999.90;999.90;;;;;;;24.29;100.00;100702.94;5058397;28;20144;-54
2022/08/09 08:33:18;;;;;;;1999.90;999.90;;;;;;;24.17;98.31;100699.25;5056899;28;20071;-53
2022/08/09 08:36:02;;;;;;;1999.90;999.90;;;;;;;24.45;100.00;100703.63;5050651;28;20051;-54
2022/08/09 08:38:47;;;;;;;1999.90;999.90;;;;;;;24.32;99.24;100708.94;5051349;28;20150;-54
2022/08/09 08:41:31;;;;;;;1999.90;999.90;;;;;;;23.51;100.00;100715.16;5054739;28;20068;-53
2022/08/09 08:44:18;;;;;;;1999.90;999.90;;;;;;;24.32;100.00;100706.25;5054141;28;20072;-54
2022/08/09 08:47:03;;;;;;;1999.90;999.90;;;;;;;24.03;97.04;100717.09;5056526;28;20089;-53
2022/08/09 08:49:48;;;;;;;1999.90;999.90;;;;;;;23.82;98.21;100709.63;5054354;28;20091;-54
2022/08/09 08:52:33;;;;;;;1999.90;999.90;;;;;;;24.21;100.00;100711.47;5058253;28;20049;-53
2022/08/09 08:55:18;;;;;;;1999.90;999.90;;;;;;;23.60;100.00;100718.19;5057476;28;20091;-54
2022/08/09 08:58:03;;;;;;;1999.90;999.90;;;;;;;24.13;95.36;100716.47;5054823;28;20053;-53
2022/08/09 09:00:48;;;;;;;1999.90;999.90;;;;;;;24.22;99.41;100713.19;5058415;28;20859;-54
2022/08/09 09:03:34;;;;;;;1999.90;999.90;;;;;;;24.00;96.52;100708.41;5055267;28;20514;-53
2022/08/09 09:06:19;;;;;;;1999.90;999.90;;;;;;;24.10;98.66;100714.88;5060698;28;20075;-52
2022/08/09 09:09:05;;;;;;;1999.90;999.90;;;;;;;24.03;100.00;100718.91;5061369;28;20078;-54
2022/08/09 09:11:50;;;;;;;1999.90;999.90;;;;;;;23.93;96.57;100725.84;5058497;28;20083;-54
2022/08/09 09:14:36;;;;;;;1999.90;999.90;;;;;;;24.66;96.72;100715.50;5057215;28;20820;-54
2022/08/09 09:17:21;;;;;;;1999.90;999.90;;;;;;;24.31;97.40;100715.25;5060199;28;20051;-53
2022/08/09 09:20:10;;;;;;;1999.90;999.90;;;;;;;24.38;95.14;100721.88;5056058;28;20103;-54
2022/08/09 09:22:57;;;;;;;1999.90;999.90;;;;;;;24.29;94.86;100717.16;5067340;28;20079;-54
2022/08/09 09:25:42;;;;;;;1999.90;999.90;;;;;;;24.04;96.85;100723.31;5057603;28;20073;-52
2022/08/09 09:28:31;;;;;;;1999.90;999.90;;;;;;;24.26;96.58;100718.22;5054290;28;20049;-53
2022/08/09 09:31:17;;;;;;;1999.90;999.90;;;;;;;24.44;99.84;100726.88;5064642;28;20051;-53
2022/08/09 09:34:10;;;;;;;1999.90;999.90;;;;;;;24.47;93.79;100717.75;5060373;28;20081;-52
2022/08/09 09:36:56;;;;;;;1999.90;999.90;;;;;;;24.31;93.28;100725.97;5058183;28;20053;-53
2022/08/09 09:39:52;;;;;;;1999.90;999.90;;;;;;;24.62;96.54;100722.03;5065685;28;20491;-53
2022/08/09 09:42:36;;;;;;;1999.90;999.90;;;;;;;24.50;94.00;100728.25;5059114;28;20253;-54
2022/08/09 09:45:22;;;;;;;1999.90;999.90;;;;;;;24.34;93.30;100722.19;5070335;28;20406;-53
2022/08/09 09:48:06;;;;;;;1999.90;999.90;;;;;;;24.66;89.24;100726.22;5067674;28;20083;-53
2022/08/09 09:50:51;;;;;;;1999.90;999.90;;;;;;;24.27;87.43;100719.94;5074409;28;20036;-53
2022/08/09 09:53:35;;;;;;;1999.90;999.90;;;;;;;24.63;89.38;100715.72;5077437;28;20057;-53
2022/08/09 09:56:31;;;;;;;1999.90;999.90;;;;;;;24.80;90.16;100713.72;5073002;28;20060;-52
2022/08/09 09:59:24;;;;;;;1999.90;999.90;;;;;;;24.85;90.97;100722.25;5071181;28;20075;-52
2022/08/09 10:02:09;;;;;;;1999.90;999.90;;;;;;;24.56;86.95;100716.25;5069336;28;20106;-55
2022/08/09 10:05:05;;;;;;;1999.90;999.90;;;;;;;23.92;89.92;100716.97;5062004;28;20151;-55
2022/08/09 10:08:02;;;;;;;1999.90;999.90;;;;;;;24.39;94.03;100706.69;5058948;28;20055;-55
2022/08/09 10:10:46;;;;;;;1999.90;999.90;;;;;;;24.47;86.56;100704.34;5079830;28;20075;-54
2022/08/09 10:13:38;;;;;;;1999.90;999.90;;;;;;;23.92;89.20;100716.97;5067276;28;20603;-53
2022/08/09 10:16:31;;;;;;;1999.90;999.90;;;;;;;24.46;90.48;100710.69;5061911;28;20395;-53
2022/08/09 10:19:15;;;;;;;1999.90;999.90;;;;;;;25.64;83.19;100710.31;5063248;28;20716;-53
2022/08/09 10:21:59;;;;;;;1999.90;999.90;;;;;;;25.38;85.08;100701.50;5059124;28;20083;-54
2022/08/09 10:24:44;;;;;;;1999.90;999.90;;;;;;;24.98;86.11;100709.72;5058162;28;20076;-53
2022/08/09 10:27:30;;;;;;;1999.90;999.90;;;;;;;24.94;85.04;100698.34;5066445;28;20048;-54
2022/08/09 10:30:15;;;;;;;1999.90;999.90;;;;;;;25.48;81.53;100709.72;5062822;28;20076;-53
2022/08/09 10:32:59;;;;;;;1999.90;999.90;;;;;;;25.39;79.14;100703.25;5064076;28;20060;-54
2022/08/09 10:35:45;;;;;;;1999.90;999.90;;;;;;;26.66;82.53;100696.34;5058623;28;20067;-54
2022/08/09 10:38:30;;;;;;;1999.90;999.90;;;;;;;26.76;77.61;100702.69;5065013;28;20505;-53
2022/08/09 10:41:17;;;;;;;1999.90;999.90;;;;;;;27.13;74.27;100699.78;5065888;28;20049;-54
2022/08/09 10:44:02;;;;;;;1999.90;999.90;;;;;;;26.96;71.13;100700.25;5058248;28;20451;-54
2022/08/09 10:47:08;;;;;;;1999.90;999.90;;;;;;;26.57;73.93;100695.22;5065746;28;20056;-54
2022/08/09 10:50:02;;;;;;;1999.90;999.90;;;;;;;27.14;73.09;100693.44;5071510;28;20591;-54
2022/08/09 10:53:08;;;;;;;1999.90;999.90;;;;;;;27.32;70.51;100693.78;5059644;28;20550;-54
2022/08/09 10:56:14;;;;;;;1999.90;999.90;;;;;;;28.05;66.24;100689.56;5068346;28;20051;-54
2022/08/09 10:59:00;;;;;;;1999.90;999.90;;;;;;;28.42;67.60;100686.44;5056431;28;20045;-54
2022/08/09 11:01:44;;;;;;;1999.90;999.90;;;;;;;27.64;69.38;100690.28;5057519;28;20083;-53
2022/08/09 11:04:29;;;;;;;1999.90;999.90;;;;;;;28.04;70.36;100682.44;5073909;28;20045;-55
2022/08/09 11:07:13;;;;;;;1999.90;999.90;;;;;;;27.99;72.19;100673.91;5063543;28;20132;-54
2022/08/09 11:09:58;;;;;;;1999.90;999.90;;;;;;;27.76;66.30;100681.22;5067525;28;20055;-53
2022/08/09 11:13:13;;;;;;;1999.90;999.90;;;;;;;28.14;65.93;100678.00;5063268;28;20080;-54
2022/08/09 11:16:29;;;;;;;1999.90;999.90;;;;;;;28.45;69.80;100686.16;5061393;28;20174;-53
2022/08/09 11:19:34;;;;;;;1999.90;999.90;;;;;;;28.45;65.17;100671.84;5065177;28;20083;-54
2022/08/09 11:22:19;;;;;;;1999.90;999.90;;;;;;;28.22;65.15;100671.97;5057683;28;20632;-54
2022/08/09 11:25:11;;;;;;;1999.90;999.90;;;;;;;27.46;67.02;100665.75;5065149;28;20051;-54
2022/08/09 11:27:57;;;;;;;1999.90;999.90;;;;;;;27.38;64.74;100673.59;5065359;28;20048;-54
2022/08/09 11:30:42;;;;;;;1999.90;999.90;;;;;;;27.91;70.04;100669.16;5060647;28;20070;-55
2022/08/09 11:33:47;;;;;;;1999.90;999.90;;;;;;;27.62;68.17;100668.03;5060705;28;20428;-54
2022/08/09 11:36:40;;;;;;;1999.90;999.90;;;;;;;28.40;68.05;100659.66;5059626;28;20090;-54
2022/08/09 11:39:24;;;;;;;1999.90;999.90;;;;;;;27.86;68.81;100665.16;5058762;28;20047;-54
2022/08/09 11:42:09;;;;;;;1999.90;999.90;;;;;;;28.20;65.31;100665.84;5062193;28;20089;-55
2022/08/09 11:44:54;;;;;;;1999.90;999.90;;;;;;;27.39;62.55;100659.16;5060031;28;20073;-55
2022/08/09 11:47:45;;;;;;;1999.90;999.90;;;;;;;27.76;61.19;100669.59;5058359;28;20053;-54
2022/08/09 11:50:55;;;;;;;1999.90;999.90;;;;;;;27.67;62.12;100666.66;5062264;28;20500;-53
2022/08/09 11:53:41;;;;;;;1999.90;999.90;;;;;;;27.50;65.20;100654.63;5059719;28;20067;-53
2022/08/09 11:56:26;;;;;;;1999.90;999.90;;;;;;;27.49;61.84;100666.38;5059386;28;20933;-54
2022/08/09 11:59:26;;;;;;;1999.90;999.90;;;;;;;27.13;65.81;100658.59;5058045;28;20090;-53
2022/08/09 12:02:11;;;;;;;1999.90;999.90;;;;;;;27.59;62.52;100662.91;5060064;28;20053;-54
2022/08/09 12:04:56;;;;;;;1999.90;999.90;;;;;;;26.98;59.66;100658.00;5057010;28;20144;-54
2022/08/09 12:07:42;;;;;;;1999.90;999.90;;;;;;;27.43;64.37;100648.06;5058327;28;20052;-54
2022/08/09 12:10:26;;;;;;;1999.90;999.90;;;;;;;26.97;63.01;100657.13;5058467;28;20222;-52